Time,TemperatureF,DewpointF,PressureIn,WindDirection,WindDirectionDegrees,WindSpeedMPH,WindSpeedGustMPH,Humidity,HourlyPrecipIn,Conditions,Clouds,dailyrainin,SoftwareType,DateUTC
2013-01-08 00:02:00,13.4,10.5,30.28,NW,320,1.0,1.0,88,0.00,,---,0.00,VWS V14.01,2013-01-08 06:02:00,
2013-01-08 00:07:00,13.2,10.3,30.27,NW,320,0.0,0.0,88,0.00,,---,0.00,VWS V14.01,2013-01-08 06:07:00,
2013-01-08 00:12:00,13.0,10.1,30.26,NW,320,1.0,1.0,88,0.00,,---,0.00,VWS V14.01,2013-01-08 06:12:00,
2013-01-08 00:17:00,12.7,9.8,30.27,NW,320,0.0,0.0,88,0.00,,---,0.00,VWS V14.01,2013-01-08 06:17:00,
2013-01-08 00:22:00,12.4,9.5,30.26,NW,320,0.0,0.0,88,0.00,,---,0.00,VWS V14.01,2013-01-08 06:22:00,
2013-01-08 00:27:00,12.1,9.2,30.27,NW,320,0.0,1.0,88,0.00,,---,0.00,VWS V14.01,2013-01-08 06:27:00,
2013-01-08 00:32:00,11.8,8.9,30.27,NW,320,0.0,0.0,88,0.00,,---,0.00,VWS V14.01,2013-01-08 06:32:00,
2013-01-08 00:37:00,11.7,8.8,30.26,NW,320,0.0,0.0,88,0.00,,---,0.00,VWS V14.01,2013-01-08 06:37:00,
2013-01-08 00:42:00,11.7,8.8,30.26,NW,320,0.0,1.0,88,0.00,,---,0.00,VWS V14.01,2013-01-08 06:42:00,
2013-01-08 00:47:00,11.7,8.8,30.26,NW,320,0.0,0.0,88,0.00,,---,0.00,VWS V14.01,2013-01-08 06:47:00,
2013-01-08 00:52:00,11.6,8.7,30.26,NW,320,0.0,0.0,88,0.00,,---,0.00,VWS V14.01,2013-01-08 06:52:00,
2013-01-08 00:57:00,11.5,8.6,30.27,NW,320,0.0,1.0,88,0.00,,---,0.00,VWS V14.01,2013-01-08 06:57:00,
2013-01-08 01:02:00,11.8,8.9,30.26,NW,320,0.0,0.0,88,0.00,,---,0.00,VWS V14.01,2013-01-08 07:02:00,
2013-01-08 01:07:00,12.1,9.5,30.26,NW,320,2.0,2.0,89,0.00,,---,0.00,VWS V14.01,2013-01-08 07:07:00,
2013-01-08 01:12:00,12.3,9.4,30.25,NW,321,2.0,2.0,88,0.00,,---,0.00,VWS V14.01,2013-01-08 07:12:00,
2013-01-08 01:17:00,12.4,9.8,30.25,NW,321,0.0,1.0,89,0.00,,---,0.00,VWS V14.01,2013-01-08 07:17:00,
2013-01-08 01:22:00,12.2,9.3,30.25,NW,323,2.0,2.0,88,0.00,,---,0.00,VWS V14.01,2013-01-08 07:22:00,
2013-01-08 01:27:00,12.2,9.3,30.25,NE,43,3.0,3.0,88,0.00,,---,0.00,VWS V14.01,2013-01-08 07:27:00,
2013-01-08 01:32:00,12.4,9.8,30.25,NE,43,2.0,2.0,89,0.00,,---,0.00,VWS V14.01,2013-01-08 07:32:00,
2013-01-08 01:37:00,12.6,10.0,30.25,NE,43,2.0,2.0,89,0.00,,---,0.00,VWS V14.01,2013-01-08 07:37:00,
2013-01-08 01:42:00,12.6,9.7,30.25,NE,43,0.0,1.0,88,0.00,,---,0.00,VWS V14.01,2013-01-08 07:42:00,
2013-01-08 01:47:00,12.6,9.7,30.24,NE,43,1.0,1.0,88,0.00,,---,0.00,VWS V14.01,2013-01-08 07:47:00,
2013-01-08 01:52:00,12.8,9.9,30.24,NE,43,1.0,2.0,88,0.00,,---,0.00,VWS V14.01,2013-01-08 07:52:00,
2013-01-08 01:57:00,13.5,10.9,30.25,NE,43,0.0,2.0,89,0.00,,---,0.00,VWS V14.01,2013-01-08 07:57:00,
2013-01-08 02:02:00,13.7,11.1,30.23,NE,43,1.0,3.0,89,0.00,,---,0.00,VWS V14.01,2013-01-08 08:02:00,
2013-01-08 02:07:00,13.7,11.1,30.23,NE,43,0.0,1.0,89,0.00,,---,0.00,VWS V14.01,2013-01-08 08:07:00,
2013-01-08 02:12:00,13.7,11.1,30.24,NE,43,0.0,1.0,89,0.00,,---,0.00,VWS V14.01,2013-01-08 08:12:00,
2013-01-08 02:17:00,13.3,10.4,30.25,NE,43,1.0,1.0,88,0.00,,---,0.00,VWS V14.01,2013-01-08 08:17:00,
2013-01-08 02:22:00,12.6,9.7,30.25,NW,315,3.0,3.0,88,0.00,,---,0.00,VWS V14.01,2013-01-08 08:22:00,
2013-01-08 02:27:00,11.9,9.0,30.25,NW,317,1.0,2.0,88,0.00,,---,0.00,VWS V14.01,2013-01-08 08:27:00,
2013-01-08 02:32:00,11.7,8.8,30.25,NW,317,2.0,3.0,88,0.00,,---,0.00,VWS V14.01,2013-01-08 08:32:00,
2013-01-08 02:37:00,11.7,8.8,30.25,NW,317,0.0,1.0,88,0.00,,---,0.00,VWS V14.01,2013-01-08 08:37:00,
2013-01-08 02:42:00,11.8,8.9,30.24,NW,317,1.0,1.0,88,0.00,,---,0.00,VWS V14.01,2013-01-08 08:42:00,
2013-01-08 02:47:00,11.8,8.9,30.24,NW,317,0.0,0.0,88,0.00,,---,0.00,VWS V14.01,2013-01-08 08:47:00,
2013-01-08 02:52:00,11.8,8.9,30.24,NW,317,0.0,1.0,88,0.00,,---,0.00,VWS V14.01,2013-01-08 08:52:00,
2013-01-08 02:57:00,11.9,9.3,30.23,NW,317,1.0,1.0,89,0.00,,---,0.00,VWS V14.01,2013-01-08 08:57:00,
2013-01-08 03:02:00,12.0,9.4,30.23,NW,317,1.0,2.0,89,0.00,,---,0.00,VWS V14.01,2013-01-08 09:02:00,
2013-01-08 03:07:00,12.2,9.6,30.25,NW,317,0.0,1.0,89,0.00,,---,0.00,VWS V14.01,2013-01-08 09:07:00,
2013-01-08 03:12:00,12.3,9.4,30.24,NW,317,0.0,1.0,88,0.00,,---,0.00,VWS V14.01,2013-01-08 09:12:00,
2013-01-08 03:17:00,12.6,10.0,30.24,NW,317,0.0,1.0,89,0.00,,---,0.00,VWS V14.01,2013-01-08 09:17:00,
2013-01-08 03:22:00,13.0,10.4,30.23,NW,317,0.0,0.0,89,0.00,,---,0.00,VWS V14.01,2013-01-08 09:22:00,
2013-01-08 03:27:00,13.1,10.5,30.22,NW,317,1.0,1.0,89,0.00,,---,0.00,VWS V14.01,2013-01-08 09:27:00,
2013-01-08 03:32:00,13.3,10.7,30.22,NW,317,0.0,1.0,89,0.00,,---,0.00,VWS V14.01,2013-01-08 09:32:00,
2013-01-08 03:37:00,13.0,10.1,30.21,NW,317,1.0,1.0,88,0.00,,---,0.00,VWS V14.01,2013-01-08 09:37:00,
2013-01-08 03:42:00,12.6,9.7,30.22,ENE,60,0.0,0.0,88,0.00,,---,0.00,VWS V14.01,2013-01-08 09:42:00,
2013-01-08 03:47:00,12.6,10.0,30.21,ENE,60,0.0,1.0,89,0.00,,---,0.00,VWS V14.01,2013-01-08 09:47:00,
2013-01-08 03:52:00,13.0,10.4,30.21,ENE,60,0.0,0.0,89,0.00,,---,0.00,VWS V14.01,2013-01-08 09:52:00,
2013-01-08 03:57:00,13.3,10.7,30.21,ENE,60,1.0,1.0,89,0.00,,---,0.00,VWS V14.01,2013-01-08 09:57:00,
2013-01-08 04:02:00,13.6,11.0,30.20,ENE,60,1.0,2.0,89,0.00,,---,0.00,VWS V14.01,2013-01-08 10:02:00,
2013-01-08 04:07:00,14.1,11.5,30.21,ENE,60,0.0,1.0,89,0.00,,---,0.00,VWS V14.01,2013-01-08 10:07:00,
2013-01-08 04:12:00,14.6,11.9,30.20,ENE,60,1.0,2.0,89,0.00,,---,0.00,VWS V14.01,2013-01-08 10:12:00,
2013-01-08 04:17:00,15.0,12.4,30.20,ENE,60,2.0,2.0,89,0.00,,---,0.00,VWS V14.01,2013-01-08 10:17:00,
2013-01-08 04:22:00,15.0,12.4,30.19,ENE,60,2.0,2.0,89,0.00,,---,0.00,VWS V14.01,2013-01-08 10:22:00,
2013-01-08 04:27:00,15.0,12.4,30.19,ENE,60,2.0,2.0,89,0.00,,---,0.00,VWS V14.01,2013-01-08 10:27:00,
2013-01-08 04:32:00,15.2,12.6,30.19,ENE,60,2.0,2.0,89,0.00,,---,0.00,VWS V14.01,2013-01-08 10:32:00,
2013-01-08 04:37:00,15.6,12.9,30.19,ENE,60,1.0,1.0,89,0.00,,---,0.00,VWS V14.01,2013-01-08 10:37:00,
2013-01-08 04:42:00,15.9,13.2,30.19,ENE,60,1.0,2.0,89,0.00,,---,0.00,VWS V14.01,2013-01-08 10:42:00,
2013-01-08 04:47:00,16.0,13.3,30.19,ENE,60,1.0,2.0,89,0.00,,---,0.00,VWS V14.01,2013-01-08 10:47:00,
2013-01-08 04:52:00,16.0,13.3,30.18,ENE,60,0.0,1.0,89,0.00,,---,0.00,VWS V14.01,2013-01-08 10:52:00,
2013-01-08 04:57:00,15.9,13.2,30.18,ENE,60,2.0,2.0,89,0.00,,---,0.00,VWS V14.01,2013-01-08 10:57:00,
2013-01-08 05:02:00,15.8,13.1,30.18,ENE,60,1.0,1.0,89,0.00,,---,0.00,VWS V14.01,2013-01-08 11:02:00,
2013-01-08 05:07:00,15.8,13.1,30.19,ENE,60,0.0,1.0,89,0.00,,---,0.00,VWS V14.01,2013-01-08 11:07:00,
2013-01-08 05:12:00,15.8,13.1,30.19,ENE,60,0.0,0.0,89,0.00,,---,0.00,VWS V14.01,2013-01-08 11:12:00,
2013-01-08 05:17:00,15.8,13.1,30.19,ENE,60,0.0,0.0,89,0.00,,---,0.00,VWS V14.01,2013-01-08 11:17:00,
2013-01-08 05:22:00,15.8,13.1,30.19,ENE,60,0.0,0.0,89,0.00,,---,0.00,VWS V14.01,2013-01-08 11:22:00,
2013-01-08 05:27:00,15.3,12.6,30.21,ENE,60,0.0,0.0,89,0.00,,---,0.00,VWS V14.01,2013-01-08 11:27:00,
2013-01-08 05:32:00,15.1,12.4,30.20,ENE,60,0.0,1.0,89,0.00,,---,0.00,VWS V14.01,2013-01-08 11:32:00,
2013-01-08 05:37:00,15.1,12.4,30.20,ENE,60,0.0,1.0,89,0.00,,---,0.00,VWS V14.01,2013-01-08 11:37:00,
2013-01-08 05:42:00,15.1,12.4,30.21,ENE,60,0.0,1.0,89,0.00,,---,0.00,VWS V14.01,2013-01-08 11:42:00,
2013-01-08 05:47:00,14.8,12.1,30.20,ENE,60,0.0,0.0,89,0.00,,---,0.00,VWS V14.01,2013-01-08 11:47:00,
2013-01-08 05:52:00,13.7,10.8,30.20,ENE,60,0.0,0.0,88,0.00,,---,0.00,VWS V14.01,2013-01-08 11:52:00,
2013-01-08 05:57:00,12.8,9.9,30.21,ENE,60,0.0,0.0,88,0.00,,---,0.00,VWS V14.01,2013-01-08 11:57:00,
2013-01-08 06:02:00,12.4,9.5,30.21,ENE,60,0.0,0.0,88,0.00,,---,0.00,VWS V14.01,2013-01-08 12:02:00,
2013-01-08 06:07:00,12.2,9.3,30.23,ENE,60,0.0,0.0,88,0.00,,---,0.00,VWS V14.01,2013-01-08 12:07:00,
2013-01-08 06:12:00,12.5,9.9,30.23,ENE,60,0.0,0.0,89,0.00,,---,0.00,VWS V14.01,2013-01-08 12:12:00,
2013-01-08 06:17:00,12.8,10.2,30.23,ENE,60,0.0,0.0,89,0.00,,---,0.00,VWS V14.01,2013-01-08 12:17:00,
2013-01-08 06:22:00,12.8,10.2,30.23,ENE,60,0.0,0.0,89,0.00,,---,0.00,VWS V14.01,2013-01-08 12:22:00,
2013-01-08 06:27:00,12.4,9.5,30.22,ENE,60,0.0,0.0,88,0.00,,---,0.00,VWS V14.01,2013-01-08 12:27:00,
2013-01-08 06:32:00,12.0,9.1,30.23,ENE,60,0.0,1.0,88,0.00,,---,0.00,VWS V14.01,2013-01-08 12:32:00,
2013-01-08 06:37:00,11.7,8.8,30.23,ENE,60,2.0,2.0,88,0.00,,---,0.00,VWS V14.01,2013-01-08 12:37:00,
2013-01-08 06:42:00,11.7,8.8,30.23,ENE,60,0.0,0.0,88,0.00,,---,0.00,VWS V14.01,2013-01-08 12:42:00,
2013-01-08 06:47:00,12.2,9.6,30.24,ENE,60,2.0,2.0,89,0.00,,---,0.00,VWS V14.01,2013-01-08 12:47:00,
2013-01-08 06:52:00,13.0,10.4,30.23,SSW,194,1.0,2.0,89,0.00,,---,0.00,VWS V14.01,2013-01-08 12:52:00,
2013-01-08 06:57:00,13.0,10.4,30.22,SSW,194,1.0,2.0,89,0.00,,---,0.00,VWS V14.01,2013-01-08 12:57:00,
2013-01-08 07:02:00,12.8,10.2,30.23,SSW,194,0.0,0.0,89,0.00,,---,0.00,VWS V14.01,2013-01-08 13:02:00,
2013-01-08 07:07:00,12.7,10.1,30.25,SSW,194,2.0,2.0,89,0.00,,---,0.00,VWS V14.01,2013-01-08 13:07:00,
2013-01-08 07:12:00,12.3,9.4,30.25,SSW,194,1.0,1.0,88,0.00,,---,0.00,VWS V14.01,2013-01-08 13:12:00,
2013-01-08 07:17:00,11.9,9.0,30.24,SSW,194,2.0,2.0,88,0.00,,---,0.00,VWS V14.01,2013-01-08 13:17:00,
2013-01-08 07:22:00,12.0,9.1,30.24,SSW,194,1.0,2.0,88,0.00,,---,0.00,VWS V14.01,2013-01-08 13:22:00,
2013-01-08 07:27:00,12.0,9.4,30.24,SSW,194,0.0,1.0,89,0.00,,---,0.00,VWS V14.01,2013-01-08 13:27:00,
2013-01-08 07:32:00,11.9,9.3,30.24,SSW,194,1.0,1.0,89,0.00,,---,0.00,VWS V14.01,2013-01-08 13:32:00,
2013-01-08 07:37:00,11.6,8.7,30.24,SSW,194,1.0,2.0,88,0.00,,---,0.00,VWS V14.01,2013-01-08 13:37:00,
2013-01-08 07:42:00,11.1,8.2,30.25,SSW,194,2.0,3.0,88,0.00,,---,0.00,VWS V14.01,2013-01-08 13:42:00,
2013-01-08 07:47:00,10.9,8.1,30.25,SSW,194,2.0,3.0,88,0.00,,---,0.00,VWS V14.01,2013-01-08 13:47:00,
2013-01-08 07:52:00,10.9,8.1,30.26,SSW,200,1.0,2.0,88,0.00,,---,0.00,VWS V14.01,2013-01-08 13:52:00,
2013-01-08 07:57:00,10.8,7.9,30.26,SSW,200,2.0,2.0,88,0.00,,---,0.00,VWS V14.01,2013-01-08 13:57:00,
2013-01-08 08:02:00,10.7,7.8,30.26,SSW,200,0.0,0.0,88,0.00,,---,0.00,VWS V14.01,2013-01-08 14:02:00,
2013-01-08 08:07:00,10.7,7.8,30.28,SSW,200,0.0,0.0,88,0.00,,---,0.00,VWS V14.01,2013-01-08 14:07:00,
2013-01-08 08:12:00,10.7,7.8,30.28,SSW,200,0.0,0.0,88,0.00,,---,0.00,VWS V14.01,2013-01-08 14:12:00,
2013-01-08 08:17:00,10.9,8.1,30.28,SSW,200,3.0,3.0,88,0.00,,---,0.00,VWS V14.01,2013-01-08 14:17:00,
2013-01-08 08:22:00,11.4,8.8,30.28,SSW,200,1.0,2.0,89,0.00,,---,0.00,VWS V14.01,2013-01-08 14:22:00,
2013-01-08 08:27:00,12.1,9.5,30.26,SSW,200,1.0,2.0,89,0.00,,---,0.00,VWS V14.01,2013-01-08 14:27:00,
2013-01-08 08:32:00,12.7,10.1,30.26,SSW,200,2.0,3.0,89,0.00,,---,0.00,VWS V14.01,2013-01-08 14:32:00,
2013-01-08 08:37:00,13.1,10.5,30.26,SSW,200,3.0,4.0,89,0.00,,---,0.00,VWS V14.01,2013-01-08 14:37:00,
2013-01-08 08:42:00,13.4,10.8,30.26,SW,217,4.0,4.0,89,0.00,,---,0.00,VWS V14.01,2013-01-08 14:42:00,
2013-01-08 08:47:00,14.0,11.4,30.25,SW,218,3.0,3.0,89,0.00,,---,0.00,VWS V14.01,2013-01-08 14:47:00,
2013-01-08 08:52:00,15.0,12.6,30.25,SW,217,2.0,3.0,90,0.00,,---,0.00,VWS V14.01,2013-01-08 14:52:00,
2013-01-08 08:57:00,15.8,13.4,30.24,SSW,193,1.0,4.0,90,0.00,,---,0.00,VWS V14.01,2013-01-08 14:57:00,
2013-01-08 09:02:00,16.4,14.0,30.25,SW,221,3.0,3.0,90,0.00,,---,0.00,VWS V14.01,2013-01-08 15:02:00,
2013-01-08 09:07:00,17.2,14.8,30.26,SSW,213,3.0,3.0,90,0.00,,---,0.00,VWS V14.01,2013-01-08 15:07:00,
2013-01-08 09:12:00,17.9,15.5,30.25,SW,227,3.0,3.0,90,0.00,,---,0.00,VWS V14.01,2013-01-08 15:12:00,
2013-01-08 09:17:00,18.2,15.8,30.26,WSW,241,1.0,1.0,90,0.00,,---,0.00,VWS V14.01,2013-01-08 15:17:00,
2013-01-08 09:22:00,18.4,15.7,30.25,WSW,241,0.0,0.0,89,0.00,,---,0.00,VWS V14.01,2013-01-08 15:22:00,
2013-01-08 09:27:00,18.9,16.5,30.26,WSW,241,0.0,0.0,90,0.00,,---,0.00,VWS V14.01,2013-01-08 15:27:00,
2013-01-08 09:32:00,19.7,17.2,30.25,WSW,248,1.0,1.0,90,0.00,,---,0.00,VWS V14.01,2013-01-08 15:32:00,
2013-01-08 09:37:00,19.7,17.2,30.25,WSW,250,0.0,0.0,90,0.00,,---,0.00,VWS V14.01,2013-01-08 15:37:00,
2013-01-08 09:42:00,19.5,16.8,30.25,WSW,250,0.0,0.0,89,0.00,,---,0.00,VWS V14.01,2013-01-08 15:42:00,
2013-01-08 09:47:00,19.3,16.6,30.25,SW,225,2.0,2.0,89,0.00,,---,0.00,VWS V14.01,2013-01-08 15:47:00,
2013-01-08 09:52:00,19.4,17.0,30.26,SW,227,1.0,1.0,90,0.00,,---,0.00,VWS V14.01,2013-01-08 15:52:00,
2013-01-08 09:57:00,19.3,16.9,30.25,SW,227,1.0,1.0,90,0.00,,---,0.00,VWS V14.01,2013-01-08 15:57:00,
2013-01-08 10:02:00,19.1,16.7,30.25,South,183,1.0,1.0,90,0.00,,---,0.00,VWS V14.01,2013-01-08 16:02:00,
2013-01-08 10:07:00,19.2,16.8,30.25,SW,215,1.0,1.0,90,0.00,,---,0.00,VWS V14.01,2013-01-08 16:07:00,
2013-01-08 10:12:00,19.4,17.0,30.25,SSW,197,1.0,1.0,90,0.00,,---,0.00,VWS V14.01,2013-01-08 16:12:00,
2013-01-08 10:17:00,19.8,17.4,30.24,SSW,206,4.0,5.0,90,0.00,,---,0.00,VWS V14.01,2013-01-08 16:17:00,
2013-01-08 10:22:00,21.4,19.2,30.23,SW,215,4.0,6.0,91,0.00,,---,0.00,VWS V14.01,2013-01-08 16:22:00,
2013-01-08 10:27:00,23.2,21.0,30.21,SSW,196,4.0,6.0,91,0.00,,---,0.00,VWS V14.01,2013-01-08 16:27:00,
2013-01-08 10:32:00,24.3,22.3,30.21,SW,229,6.0,7.0,92,0.00,,---,0.00,VWS V14.01,2013-01-08 16:32:00,
2013-01-08 10:37:00,25.3,23.0,30.19,SSE,165,3.0,4.0,91,0.00,,---,0.00,VWS V14.01,2013-01-08 16:37:00,
2013-01-08 10:42:00,25.8,23.5,30.19,SW,217,6.0,6.0,91,0.00,,---,0.00,VWS V14.01,2013-01-08 16:42:00,
2013-01-08 10:47:00,26.2,23.9,30.19,SSW,200,5.0,7.0,91,0.00,,---,0.00,VWS V14.01,2013-01-08 16:47:00,
2013-01-08 10:52:00,26.4,24.1,30.19,SSW,209,6.0,7.0,91,0.00,,---,0.00,VWS V14.01,2013-01-08 16:52:00,
2013-01-08 10:57:00,26.7,24.4,30.18,SSW,192,10.0,12.0,91,0.00,,---,0.00,VWS V14.01,2013-01-08 16:57:00,
2013-01-08 11:02:00,27.0,24.7,30.18,SW,218,9.0,12.0,91,0.00,,---,0.00,VWS V14.01,2013-01-08 17:02:00,
2013-01-08 11:07:00,27.4,25.1,30.19,SSW,202,14.0,14.0,91,0.00,,---,0.00,VWS V14.01,2013-01-08 17:07:00,
2013-01-08 11:12:00,28.0,25.7,30.19,SW,215,6.0,6.0,91,0.00,,---,0.00,VWS V14.01,2013-01-08 17:12:00,
2013-01-08 11:17:00,28.6,26.3,30.17,SSW,202,7.0,11.0,91,0.00,,---,0.00,VWS V14.01,2013-01-08 17:17:00,
2013-01-08 11:22:00,29.2,26.6,30.18,SW,215,4.0,5.0,90,0.00,,---,0.00,VWS V14.01,2013-01-08 17:22:00,
2013-01-08 11:27:00,29.8,27.2,30.17,SSW,205,5.0,5.0,90,0.00,,---,0.00,VWS V14.01,2013-01-08 17:27:00,
2013-01-08 11:32:00,30.6,28.0,30.16,SSW,211,11.0,11.0,90,0.00,,---,0.00,VWS V14.01,2013-01-08 17:32:00,
2013-01-08 11:37:00,30.9,28.0,30.15,SW,224,12.0,15.0,89,0.00,,---,0.00,VWS V14.01,2013-01-08 17:37:00,
2013-01-08 11:42:00,30.6,27.2,30.15,SSW,201,17.0,17.0,87,0.00,,---,0.00,VWS V14.01,2013-01-08 17:42:00,
2013-01-08 11:47:00,30.3,26.9,30.16,SSW,207,8.0,9.0,87,0.00,,---,0.00,VWS V14.01,2013-01-08 17:47:00,
2013-01-08 11:52:00,30.3,26.6,30.16,SSW,198,10.0,14.0,86,0.00,,---,0.00,VWS V14.01,2013-01-08 17:52:00,
2013-01-08 11:57:00,30.5,26.8,30.15,SSW,213,11.0,14.0,86,0.00,,---,0.00,VWS V14.01,2013-01-08 17:57:00,
2013-01-08 12:02:00,30.5,26.5,30.14,SSW,200,6.0,13.0,85,0.00,,---,0.00,VWS V14.01,2013-01-08 18:02:00,
2013-01-08 12:07:00,30.4,26.4,30.14,South,184,12.0,12.0,85,0.00,,---,0.00,VWS V14.01,2013-01-08 18:07:00,
2013-01-08 12:12:00,30.5,26.5,30.14,SW,222,6.0,12.0,85,0.00,,---,0.00,VWS V14.01,2013-01-08 18:12:00,
2013-01-08 12:17:00,30.5,26.2,30.14,SSW,207,12.0,12.0,84,0.00,,---,0.00,VWS V14.01,2013-01-08 18:17:00,
2013-01-08 12:22:00,30.7,26.5,30.14,SW,215,10.0,14.0,84,0.00,,---,0.00,VWS V14.01,2013-01-08 18:22:00,
2013-01-08 12:27:00,30.8,26.5,30.14,SW,217,15.0,15.0,84,0.00,,---,0.00,VWS V14.01,2013-01-08 18:27:00,
2013-01-08 12:32:00,30.9,26.4,30.13,SSW,198,12.0,19.0,83,0.00,,---,0.00,VWS V14.01,2013-01-08 18:32:00,
2013-01-08 12:37:00,31.1,26.5,30.13,South,187,10.0,15.0,83,0.00,,---,0.00,VWS V14.01,2013-01-08 18:37:00,
2013-01-08 12:42:00,31.5,26.9,30.14,SW,215,12.0,15.0,83,0.00,,---,0.00,VWS V14.01,2013-01-08 18:42:00,
2013-01-08 12:47:00,31.8,26.9,30.12,SW,214,11.0,16.0,82,0.00,,---,0.00,VWS V14.01,2013-01-08 18:47:00,
2013-01-08 12:52:00,31.8,26.6,30.12,SW,216,9.0,17.0,81,0.00,,---,0.00,VWS V14.01,2013-01-08 18:52:00,
2013-01-08 12:57:00,31.8,26.6,30.12,SW,226,10.0,10.0,81,0.00,,---,0.00,VWS V14.01,2013-01-08 18:57:00,
2013-01-08 13:02:00,31.7,26.5,30.12,WSW,248,13.0,16.0,81,0.00,,---,0.00,VWS V14.01,2013-01-08 19:02:00,
2013-01-08 13:07:00,31.3,26.2,30.12,SW,235,6.0,14.0,81,0.00,,---,0.00,VWS V14.01,2013-01-08 19:07:00,
2013-01-08 13:12:00,31.1,26.0,30.12,WSW,238,12.0,12.0,81,0.00,,---,0.00,VWS V14.01,2013-01-08 19:12:00,
2013-01-08 13:17:00,30.8,26.0,30.12,WSW,251,9.0,15.0,82,0.00,,---,0.00,VWS V14.01,2013-01-08 19:17:00,
2013-01-08 13:22:00,30.7,25.9,30.11,SSE,167,10.0,15.0,82,0.00,,---,0.00,VWS V14.01,2013-01-08 19:22:00,
2013-01-08 13:27:00,31.4,26.8,30.12,SW,214,9.0,13.0,83,0.00,,---,0.00,VWS V14.01,2013-01-08 19:27:00,
2013-01-08 13:31:00,32.1,27.2,30.12,SW,235,8.0,15.0,82,0.00,,---,0.00,VWS V14.01,2013-01-08 19:31:00,
2013-01-08 13:36:00,32.6,27.4,30.12,WSW,239,6.0,12.0,81,0.00,,---,0.00,VWS V14.01,2013-01-08 19:36:00,
2013-01-08 13:41:00,32.8,27.6,30.12,SW,236,7.0,9.0,81,0.00,,---,0.00,VWS V14.01,2013-01-08 19:41:00,
2013-01-08 13:46:00,33.0,27.5,30.12,SSW,202,12.0,15.0,80,0.00,,---,0.00,VWS V14.01,2013-01-08 19:46:00,
2013-01-08 13:51:00,33.0,27.5,30.12,South,185,14.0,17.0,80,0.00,,---,0.00,VWS V14.01,2013-01-08 19:51:00,
2013-01-08 13:56:00,33.3,27.8,30.13,SW,223,14.0,14.0,80,0.00,,---,0.00,VWS V14.01,2013-01-08 19:56:00,
2013-01-08 14:01:00,33.6,28.1,30.12,SW,226,10.0,11.0,80,0.00,,---,0.00,VWS V14.01,2013-01-08 20:01:00,
2013-01-08 14:06:00,33.9,28.1,30.13,SW,222,6.0,7.0,79,0.00,,---,0.00,VWS V14.01,2013-01-08 20:06:00,
2013-01-08 14:11:00,34.4,28.6,30.13,SW,217,7.0,9.0,79,0.00,,---,0.00,VWS V14.01,2013-01-08 20:11:00,
2013-01-08 14:16:00,34.4,28.3,30.13,SW,218,6.0,12.0,78,0.00,,---,0.00,VWS V14.01,2013-01-08 20:16:00,
2013-01-08 14:21:00,34.5,28.4,30.13,SSW,207,6.0,8.0,78,0.00,,---,0.00,VWS V14.01,2013-01-08 20:21:00,
2013-01-08 14:26:00,34.4,28.0,30.13,SSW,212,13.0,18.0,77,0.00,,---,0.00,VWS V14.01,2013-01-08 20:26:00,
2013-01-08 14:31:00,34.1,27.7,30.14,SW,223,9.0,12.0,77,0.00,,---,0.00,VWS V14.01,2013-01-08 20:31:00,
2013-01-08 14:36:00,34.1,28.0,30.15,WSW,250,1.0,6.0,78,0.00,,---,0.00,VWS V14.01,2013-01-08 20:36:00,
2013-01-08 14:41:00,34.0,27.9,30.14,SW,220,6.0,11.0,78,0.00,,---,0.00,VWS V14.01,2013-01-08 20:41:00,
2013-01-08 14:46:00,33.8,27.7,30.14,SW,220,5.0,8.0,78,0.00,,---,0.00,VWS V14.01,2013-01-08 20:46:00,
2013-01-08 14:51:00,33.7,27.6,30.15,SE,146,6.0,6.0,78,0.00,,---,0.00,VWS V14.01,2013-01-08 20:51:00,
2013-01-08 14:56:00,33.6,27.5,30.15,SW,228,4.0,6.0,78,0.00,,---,0.00,VWS V14.01,2013-01-08 20:56:00,
2013-01-08 15:01:00,33.5,27.7,30.15,SW,234,4.0,7.0,79,0.00,,---,0.00,VWS V14.01,2013-01-08 21:01:00,
2013-01-08 15:06:00,33.6,27.8,30.15,SW,225,8.0,12.0,79,0.00,,---,0.00,VWS V14.01,2013-01-08 21:06:00,
2013-01-08 15:11:00,33.5,27.7,30.16,SW,215,6.0,8.0,79,0.00,,---,0.00,VWS V14.01,2013-01-08 21:11:00,
2013-01-08 15:16:00,33.2,27.4,30.17,SW,232,4.0,9.0,79,0.00,,---,0.00,VWS V14.01,2013-01-08 21:16:00,
2013-01-08 15:21:00,33.0,27.2,30.18,SW,225,6.0,8.0,79,0.00,,---,0.00,VWS V14.01,2013-01-08 21:21:00,
2013-01-08 15:26:00,33.0,27.2,30.18,SW,223,6.0,11.0,79,0.00,,---,0.00,VWS V14.01,2013-01-08 21:26:00,
2013-01-08 15:31:00,33.0,27.5,30.18,WSW,255,9.0,9.0,80,0.00,,---,0.00,VWS V14.01,2013-01-08 21:31:00,
2013-01-08 15:36:00,33.0,27.5,30.19,SSW,213,2.0,4.0,80,0.00,,---,0.00,VWS V14.01,2013-01-08 21:36:00,
2013-01-08 15:41:00,33.0,27.5,30.19,SW,225,2.0,3.0,80,0.00,,---,0.00,VWS V14.01,2013-01-08 21:41:00,
2013-01-08 15:46:00,33.0,27.8,30.19,SW,221,2.0,3.0,81,0.00,,---,0.00,VWS V14.01,2013-01-08 21:46:00,
2013-01-08 15:51:00,32.9,27.7,30.19,WSW,255,2.0,3.0,81,0.00,,---,0.00,VWS V14.01,2013-01-08 21:51:00,
2013-01-08 15:56:00,32.8,27.6,30.20,SSW,205,4.0,4.0,81,0.00,,---,0.00,VWS V14.01,2013-01-08 21:56:00,
2013-01-08 16:01:00,32.8,27.6,30.21,SW,234,6.0,7.0,81,0.00,,---,0.00,VWS V14.01,2013-01-08 22:01:00,
2013-01-08 16:06:00,32.7,27.5,30.20,SW,218,5.0,9.0,81,0.00,,---,0.00,VWS V14.01,2013-01-08 22:06:00,
2013-01-08 16:11:00,32.6,27.4,30.21,SW,219,3.0,5.0,81,0.00,,---,0.00,VWS V14.01,2013-01-08 22:11:00,
2013-01-08 16:16:00,32.4,27.2,30.22,SSW,209,3.0,5.0,81,0.00,,---,0.00,VWS V14.01,2013-01-08 22:16:00,
2013-01-08 16:21:00,32.4,27.2,30.21,SSW,211,5.0,9.0,81,0.00,,---,0.00,VWS V14.01,2013-01-08 22:21:00,
2013-01-08 16:26:00,32.2,27.0,30.22,SW,216,4.0,9.0,81,0.00,,---,0.00,VWS V14.01,2013-01-08 22:26:00,
2013-01-08 16:31:00,32.0,26.8,30.21,SSW,205,9.0,9.0,81,0.00,,---,0.00,VWS V14.01,2013-01-08 22:31:00,
2013-01-08 16:36:00,31.9,27.0,30.21,SW,222,7.0,7.0,82,0.00,,---,0.00,VWS V14.01,2013-01-08 22:36:00,
2013-01-08 16:41:00,31.7,26.8,30.21,SW,229,3.0,8.0,82,0.00,,---,0.00,VWS V14.01,2013-01-08 22:41:00,
2013-01-08 16:46:00,31.7,26.8,30.21,SW,217,6.0,7.0,82,0.00,,---,0.00,VWS V14.01,2013-01-08 22:46:00,
2013-01-08 16:51:00,31.6,27.0,30.21,SW,225,5.0,7.0,83,0.00,,---,0.00,VWS V14.01,2013-01-08 22:51:00,
2013-01-08 16:56:00,31.6,27.0,30.21,SSW,213,3.0,5.0,83,0.00,,---,0.00,VWS V14.01,2013-01-08 22:56:00,
2013-01-08 17:01:00,31.6,27.0,30.21,SW,215,8.0,10.0,83,0.00,,---,0.00,VWS V14.01,2013-01-08 23:01:00,
2013-01-08 17:06:00,31.6,27.0,30.24,SW,214,5.0,6.0,83,0.00,,---,0.00,VWS V14.01,2013-01-08 23:06:00,
2013-01-08 17:11:00,31.6,27.0,30.25,SW,216,7.0,7.0,83,0.00,,---,0.00,VWS V14.01,2013-01-08 23:11:00,
2013-01-08 17:16:00,31.5,27.2,30.25,SSW,211,6.0,9.0,84,0.00,,---,0.00,VWS V14.01,2013-01-08 23:16:00,
2013-01-08 17:21:00,31.6,27.3,30.25,SW,215,6.0,7.0,84,0.00,,---,0.00,VWS V14.01,2013-01-08 23:21:00,
2013-01-08 17:26:00,31.6,27.3,30.25,SSW,213,6.0,7.0,84,0.00,,---,0.00,VWS V14.01,2013-01-08 23:26:00,
2013-01-08 17:31:00,31.7,27.4,30.25,SW,217,5.0,6.0,84,0.00,,---,0.00,VWS V14.01,2013-01-08 23:31:00,
2013-01-08 17:36:00,31.7,27.4,30.25,SSW,207,5.0,6.0,84,0.00,,---,0.00,VWS V14.01,2013-01-08 23:36:00,
2013-01-08 17:41:00,31.7,27.4,30.25,SW,227,1.0,4.0,84,0.00,,---,0.00,VWS V14.01,2013-01-08 23:41:00,
2013-01-08 17:46:00,31.7,27.4,30.25,West,271,6.0,6.0,84,0.00,,---,0.00,VWS V14.01,2013-01-08 23:46:00,
2013-01-08 17:51:00,31.7,27.4,30.26,SW,217,3.0,6.0,84,0.00,,---,0.00,VWS V14.01,2013-01-08 23:51:00,
2013-01-08 17:56:00,31.7,27.4,30.26,SW,219,3.0,6.0,84,0.00,,---,0.00,VWS V14.01,2013-01-08 23:56:00,
2013-01-08 18:01:00,31.7,27.4,30.27,SW,218,7.0,8.0,84,0.00,,---,0.00,VWS V14.01,2013-01-09 00:01:00,
2013-01-08 18:06:00,31.5,27.2,30.27,SW,217,6.0,9.0,84,0.00,,---,0.00,VWS V14.01,2013-01-09 00:06:00,
2013-01-08 18:11:00,31.4,27.1,30.27,SW,223,4.0,5.0,84,0.00,,---,0.00,VWS V14.01,2013-01-09 00:11:00,
2013-01-08 18:16:00,31.2,26.9,30.27,SSW,203,3.0,5.0,84,0.00,,---,0.00,VWS V14.01,2013-01-09 00:16:00,
2013-01-08 18:21:00,30.9,26.6,30.28,SW,224,5.0,5.0,84,0.00,,---,0.00,VWS V14.01,2013-01-09 00:21:00,
2013-01-08 18:26:00,30.7,26.5,30.29,SSW,193,6.0,7.0,84,0.00,,---,0.00,VWS V14.01,2013-01-09 00:26:00,
2013-01-08 18:31:00,30.6,26.4,30.29,SW,218,5.0,6.0,84,0.00,,---,0.00,VWS V14.01,2013-01-09 00:31:00,
2013-01-08 18:36:00,30.4,26.4,30.30,SW,214,5.0,6.0,85,0.00,,---,0.00,VWS V14.01,2013-01-09 00:36:00,
2013-01-08 18:41:00,30.3,26.3,30.30,SSW,202,2.0,2.0,85,0.00,,---,0.00,VWS V14.01,2013-01-09 00:41:00,
2013-01-08 18:46:00,30.1,26.1,30.29,South,189,2.0,3.0,85,0.00,,---,0.00,VWS V14.01,2013-01-09 00:46:00,
2013-01-08 18:51:00,30.1,26.1,30.30,SSW,212,3.0,4.0,85,0.00,,---,0.00,VWS V14.01,2013-01-09 00:51:00,
2013-01-08 18:56:00,30.0,26.0,30.31,SW,227,3.0,3.0,85,0.00,,---,0.00,VWS V14.01,2013-01-09 00:56:00,
2013-01-08 19:01:00,29.7,25.8,30.31,SW,229,2.0,2.0,85,0.00,,---,0.00,VWS V14.01,2013-01-09 01:01:00,
2013-01-08 19:06:00,29.4,25.5,30.32,WSW,242,2.0,3.0,85,0.00,,---,0.00,VWS V14.01,2013-01-09 01:06:00,
2013-01-08 19:11:00,29.2,25.3,30.33,South,186,3.0,4.0,85,0.00,,---,0.00,VWS V14.01,2013-01-09 01:11:00,
2013-01-08 19:16:00,29.1,25.2,30.33,SW,236,1.0,2.0,85,0.00,,---,0.00,VWS V14.01,2013-01-09 01:16:00,
2013-01-08 19:21:00,28.9,25.0,30.33,SW,235,3.0,3.0,85,0.00,,---,0.00,VWS V14.01,2013-01-09 01:21:00,
2013-01-08 19:26:00,28.9,25.2,30.33,SW,218,2.0,4.0,86,0.00,,---,0.00,VWS V14.01,2013-01-09 01:26:00,
2013-01-08 19:31:00,29.0,25.4,30.34,SW,220,6.0,6.0,86,0.00,,---,0.00,VWS V14.01,2013-01-09 01:31:00,
2013-01-08 19:36:00,29.0,25.4,30.34,SSW,212,4.0,6.0,86,0.00,,---,0.00,VWS V14.01,2013-01-09 01:36:00,
2013-01-08 19:41:00,29.2,25.5,30.35,SSW,209,8.0,10.0,86,0.00,,---,0.00,VWS V14.01,2013-01-09 01:41:00,
2013-01-08 19:46:00,29.3,25.6,30.35,SSW,207,9.0,9.0,86,0.00,,---,0.00,VWS V14.01,2013-01-09 01:46:00,
2013-01-08 19:51:00,29.4,25.7,30.35,SSW,198,5.0,7.0,86,0.00,,---,0.00,VWS V14.01,2013-01-09 01:51:00,
2013-01-08 19:56:00,29.4,25.7,30.36,SSW,213,7.0,8.0,86,0.00,,---,0.00,VWS V14.01,2013-01-09 01:56:00,
2013-01-08 20:01:00,29.5,25.8,30.36,SSW,211,7.0,7.0,86,0.00,,---,0.00,VWS V14.01,2013-01-09 02:01:00,
2013-01-08 20:06:00,29.6,25.9,30.33,SSW,205,6.0,8.0,86,0.00,,---,0.00,VWS V14.01,2013-01-09 02:06:00,
2013-01-08 20:11:00,29.6,25.9,30.34,SSW,210,5.0,6.0,86,0.00,,---,0.00,VWS V14.01,2013-01-09 02:11:00,
2013-01-08 20:16:00,29.5,27.5,30.34,SW,218,5.0,9.0,92,0.00,,---,0.00,VWS V14.01,2013-01-09 02:16:00,
2013-01-08 20:21:00,29.4,25.7,30.35,SSW,213,7.0,7.0,86,0.00,,---,0.00,VWS V14.01,2013-01-09 02:21:00,
2013-01-08 20:26:00,29.3,25.6,30.35,South,182,5.0,5.0,86,0.00,,---,0.00,VWS V14.01,2013-01-09 02:26:00,
2013-01-08 20:31:00,29.0,25.4,30.35,SSW,196,3.0,4.0,86,0.00,,---,0.00,VWS V14.01,2013-01-09 02:31:00,
2013-01-08 20:36:00,28.8,25.1,30.36,SSW,194,4.0,5.0,86,0.00,,---,0.00,VWS V14.01,2013-01-09 02:36:00,
2013-01-08 20:41:00,28.7,25.0,30.36,SSW,205,4.0,5.0,86,0.00,,---,0.00,VWS V14.01,2013-01-09 02:41:00,
2013-01-08 20:46:00,28.6,25.0,30.36,SW,215,5.0,5.0,86,0.00,,---,0.00,VWS V14.01,2013-01-09 02:46:00,
2013-01-08 20:51:00,28.7,25.3,30.37,SW,234,4.0,6.0,87,0.00,,---,0.00,VWS V14.01,2013-01-09 02:51:00,
2013-01-08 20:56:00,28.8,25.4,30.37,SSW,194,5.0,5.0,87,0.00,,---,0.00,VWS V14.01,2013-01-09 02:56:00,
2013-01-08 21:01:00,29.0,25.6,30.37,SSW,209,4.0,4.0,87,0.00,,---,0.00,VWS V14.01,2013-01-09 03:01:00,
2013-01-08 21:06:00,29.1,25.7,30.37,SSW,213,4.0,5.0,87,0.00,,---,0.00,VWS V14.01,2013-01-09 03:06:00,
2013-01-08 21:11:00,29.1,25.7,30.37,SSW,211,4.0,5.0,87,0.00,,---,0.00,VWS V14.01,2013-01-09 03:11:00,
2013-01-08 21:16:00,29.1,25.7,30.37,SW,218,6.0,6.0,87,0.00,,---,0.00,VWS V14.01,2013-01-09 03:16:00,
2013-01-08 21:21:00,29.0,25.4,30.37,SSW,213,6.0,7.0,86,0.00,,---,0.00,VWS V14.01,2013-01-09 03:21:00,
2013-01-08 21:26:00,28.8,25.1,30.38,SW,214,5.0,7.0,86,0.00,,---,0.00,VWS V14.01,2013-01-09 03:26:00,
2013-01-08 21:31:00,28.8,25.1,30.38,SW,229,7.0,9.0,86,0.00,,---,0.00,VWS V14.01,2013-01-09 03:31:00,
2013-01-08 21:36:00,28.7,25.0,30.39,SSW,213,3.0,5.0,86,0.00,,---,0.00,VWS V14.01,2013-01-09 03:36:00,
2013-01-08 21:41:00,28.5,24.9,30.39,SW,217,4.0,5.0,86,0.00,,---,0.00,VWS V14.01,2013-01-09 03:41:00,
2013-01-08 21:46:00,28.3,24.9,30.40,SSW,193,4.0,5.0,87,0.00,,---,0.00,VWS V14.01,2013-01-09 03:46:00,
2013-01-08 21:51:00,28.1,24.7,30.41,SSW,211,3.0,4.0,87,0.00,,---,0.00,VWS V14.01,2013-01-09 03:51:00,
2013-01-08 21:56:00,27.9,24.5,30.41,SSW,213,6.0,6.0,87,0.00,,---,0.00,VWS V14.01,2013-01-09 03:56:00,
2013-01-08 22:01:00,28.0,24.6,30.41,SSW,207,4.0,6.0,87,0.00,,---,0.00,VWS V14.01,2013-01-09 04:01:00,
2013-01-08 22:06:00,28.1,24.7,30.37,SSW,201,4.0,5.0,87,0.00,,---,0.00,VWS V14.01,2013-01-09 04:06:00,
2013-01-08 22:11:00,28.3,24.9,30.38,SSW,200,3.0,5.0,87,0.00,,---,0.00,VWS V14.01,2013-01-09 04:11:00,
2013-01-08 22:16:00,28.4,25.0,30.38,South,182,4.0,5.0,87,0.00,,---,0.00,VWS V14.01,2013-01-09 04:16:00,
2013-01-08 22:21:00,28.4,25.0,30.39,South,180,5.0,5.0,87,0.00,,---,0.00,VWS V14.01,2013-01-09 04:21:00,
2013-01-08 22:26:00,28.4,25.0,30.39,South,184,5.0,5.0,87,0.00,,---,0.00,VWS V14.01,2013-01-09 04:26:00,
2013-01-08 22:31:00,28.4,25.0,30.39,South,191,4.0,4.0,87,0.00,,---,0.00,VWS V14.01,2013-01-09 04:31:00,
2013-01-08 22:36:00,28.4,25.0,30.39,SSW,196,3.0,4.0,87,0.00,,---,0.00,VWS V14.01,2013-01-09 04:36:00,
2013-01-08 22:41:00,28.4,25.0,30.39,SSW,193,4.0,4.0,87,0.00,,---,0.00,VWS V14.01,2013-01-09 04:41:00,
2013-01-08 22:46:00,28.3,24.9,30.39,SSW,207,5.0,5.0,87,0.00,,---,0.00,VWS V14.01,2013-01-09 04:46:00,
2013-01-08 22:51:00,28.1,24.7,30.39,SSW,196,4.0,4.0,87,0.00,,---,0.00,VWS V14.01,2013-01-09 04:51:00,
2013-01-08 22:56:00,28.1,24.7,30.39,SSW,210,3.0,4.0,87,0.00,,---,0.00,VWS V14.01,2013-01-09 04:56:00,
2013-01-08 23:00:00,28.1,24.7,30.40,SSW,210,3.0,4.0,87,0.00,,---,0.00,VWS V14.01,2013-01-09 05:00:00,
2013-01-08 23:05:00,28.1,24.7,30.38,South,188,3.0,4.0,87,0.00,,---,0.00,VWS V14.01,2013-01-09 05:05:00,
2013-01-08 23:10:00,28.1,24.7,30.38,South,182,3.0,5.0,87,0.00,,---,0.00,VWS V14.01,2013-01-09 05:10:00,
2013-01-08 23:15:00,28.1,24.7,30.38,South,182,4.0,5.0,87,0.00,,---,0.00,VWS V14.01,2013-01-09 05:15:00,
2013-01-08 23:20:00,28.3,25.2,30.38,SSW,211,6.0,6.0,88,0.00,,---,0.00,VWS V14.01,2013-01-09 05:20:00,
2013-01-08 23:25:00,28.4,25.0,30.38,SW,233,5.0,5.0,87,0.00,,---,0.00,VWS V14.01,2013-01-09 05:25:00,
2013-01-08 23:30:00,28.5,25.1,30.38,SW,215,6.0,7.0,87,0.00,,---,0.00,VWS V14.01,2013-01-09 05:30:00,
2013-01-08 23:35:00,28.6,25.2,30.38,SSW,211,5.0,6.0,87,0.00,,---,0.00,VWS V14.01,2013-01-09 05:35:00,
2013-01-08 23:40:00,28.5,25.1,30.38,SW,215,5.0,6.0,87,0.00,,---,0.00,VWS V14.01,2013-01-09 05:40:00,
2013-01-08 23:45:00,28.4,25.0,30.39,SW,214,3.0,5.0,87,0.00,,---,0.00,VWS V14.01,2013-01-09 05:45:00,
2013-01-08 23:50:00,28.1,24.7,30.39,SW,217,2.0,3.0,87,0.00,,---,0.00,VWS V14.01,2013-01-09 05:50:00,
2013-01-08 23:55:00,28.1,24.7,30.39,SW,217,2.0,3.0,87,0.00,,---,0.00,VWS V14.01,2013-01-09 05:55:00,